Terminal Aerodrome Forecast
Issued by NWS Charleston, WV

Current Version | Previous Version | Graphics & Text | Print | Product List | Glossary On
Versions: 1 2 3 4 5 6 7 8 9 10 11 12 13 14 15 16 17 18 19 20 21 22 23 24 25 26 27 28 29 30 31 32 33
000
FTUS41 KRLX 182100 AAB
TAFEKN
TAF AMD
KEKN 182122Z 1821/1918 31013KT P6SM BKN027 OVC035
     FM190000 30007KT 6SM -RA BR BKN015 OVC025
     FM190500 30009KT P6SM OVC010
     FM191500 29009KT P6SM BKN025
     FM191600 29009KT P6SM SCT035=

USA.gov is the U.S. government's official web portal to all federal, state and local government web resources and services.